createdAt,value
2022-11-24T00:00:37.330Z,5.4
2022-11-24T00:01:42.627Z,5.4
2022-11-24T00:02:47.915Z,5.4
2022-11-24T00:03:54.197Z,5.4
2022-11-24T00:05:00.465Z,5.4
2022-11-24T00:06:06.743Z,5.4
2022-11-24T00:07:13.005Z,5.4
2022-11-24T00:08:19.360Z,5.4
2022-11-24T00:09:25.551Z,5.4
2022-11-24T00:10:31.831Z,5.4
2022-11-24T00:11:38.105Z,5.4
2022-11-24T00:12:44.369Z,5.4
2022-11-24T00:13:50.641Z,5.4
2022-11-24T00:14:56.909Z,5.4
2022-11-24T00:16:03.190Z,5.4
2022-11-24T00:17:08.489Z,5.4
2022-11-24T00:18:14.778Z,5.4
2022-11-24T00:19:21.026Z,5.4
2022-11-24T00:20:27.295Z,5.4
2022-11-24T00:21:33.574Z,5.4
2022-11-24T00:22:39.831Z,5.4
2022-11-24T00:23:46.107Z,5.4
2022-11-24T00:24:51.405Z,5.4
2022-11-24T00:25:56.694Z,5.4
2022-11-24T00:27:02.967Z,5.3
2022-11-24T00:28:08.266Z,5.3
2022-11-24T00:29:13.546Z,5.3
2022-11-24T00:30:19.825Z,5.3
2022-11-24T00:31:26.121Z,5.2
2022-11-24T00:32:32.437Z,5.2
2022-11-24T00:33:38.638Z,5.2
2022-11-24T00:34:44.917Z,5.2
2022-11-24T00:35:51.196Z,5.2
2022-11-24T00:36:57.492Z,5.2
2022-11-24T00:38:03.754Z,5.2
2022-11-24T00:39:10.003Z,5.1
2022-11-24T00:40:16.306Z,5.1
2022-11-24T00:41:22.561Z,5.1
2022-11-24T00:42:28.874Z,5.1
2022-11-24T00:43:34.112Z,5
2022-11-24T00:44:40.377Z,5
2022-11-24T00:45:46.650Z,5
2022-11-24T00:46:52.982Z,5
2022-11-24T00:47:59.199Z,5
2022-11-24T00:49:05.473Z,4.9
2022-11-24T00:50:11.735Z,4.9
2022-11-24T00:51:18.019Z,4.9
2022-11-24T00:52:24.283Z,4.9
2022-11-24T00:53:30.578Z,4.9
2022-11-24T00:54:36.830Z,4.9
2022-11-24T00:55:43.128Z,4.9
2022-11-24T00:56:49.369Z,4.9
2022-11-24T00:57:54.694Z,4.9
2022-11-24T00:59:00.934Z,4.9
2022-11-24T01:00:07.204Z,4.8
2022-11-24T01:01:13.478Z,4.8
2022-11-24T01:02:19.751Z,4.8
2022-11-24T01:03:26.016Z,4.8
2022-11-24T01:04:32.302Z,4.8
2022-11-24T01:05:38.561Z,4.8
2022-11-24T01:06:44.835Z,4.8
2022-11-24T01:07:51.118Z,4.8
2022-11-24T01:08:57.406Z,4.8
2022-11-24T01:10:03.651Z,4.8
2022-11-24T01:11:08.949Z,4.8
2022-11-24T01:12:14.237Z,4.7
2022-11-24T01:13:19.553Z,4.7
2022-11-24T01:14:24.848Z,4.7
2022-11-24T01:15:31.119Z,4.7
2022-11-24T01:16:37.381Z,4.7
2022-11-24T01:17:43.643Z,4.7
2022-11-24T01:18:49.923Z,4.6
2022-11-24T01:19:56.189Z,4.6
2022-11-24T01:21:02.459Z,4.6
2022-11-24T01:22:08.730Z,4.6
2022-11-24T01:23:15.011Z,4.6
2022-11-24T01:24:20.313Z,4.6
2022-11-24T01:25:26.569Z,4.6
2022-11-24T01:26:32.848Z,4.6
2022-11-24T01:27:39.116Z,4.6
2022-11-24T01:28:45.404Z,4.6
2022-11-24T01:29:51.653Z,4.6
2022-11-24T01:30:57.934Z,4.5
2022-11-24T01:32:04.213Z,4.6
2022-11-24T01:33:10.515Z,4.6
2022-11-24T01:34:16.757Z,4.5
2022-11-24T01:35:23.030Z,4.5
2022-11-24T01:36:28.338Z,4.6
2022-11-24T01:37:33.669Z,4.5
2022-11-24T01:38:38.909Z,4.5
2022-11-24T01:39:44.190Z,4.5
2022-11-24T01:40:50.469Z,4.5
2022-11-24T01:41:56.742Z,4.5
2022-11-24T01:43:03.053Z,4.5
2022-11-24T01:44:09.285Z,4.5
2022-11-24T01:45:15.558Z,4.5
2022-11-24T01:46:21.826Z,4.5
2022-11-24T01:47:28.101Z,4.5
2022-11-24T01:48:34.417Z,4.5
2022-11-24T01:49:40.652Z,4.5
2022-11-24T01:50:46.939Z,4.5
2022-11-24T01:51:53.190Z,4.5
2022-11-24T01:52:59.458Z,4.5
2022-11-24T01:54:04.749Z,4.5
2022-11-24T01:55:11.020Z,4.5
2022-11-24T01:56:17.304Z,4.5
2022-11-24T01:57:23.564Z,4.5
2022-11-24T01:58:29.837Z,4.5
2022-11-24T01:59:36.111Z,4.5
2022-11-24T02:00:42.408Z,4.5
2022-11-24T02:01:47.724Z,4.5
2022-11-24T02:02:52.998Z,4.5
2022-11-24T02:03:58.284Z,4.5
2022-11-24T02:05:03.556Z,4.5
2022-11-24T02:06:09.835Z,4.5
2022-11-24T02:07:16.104Z,4.5
2022-11-24T02:08:22.390Z,4.5
2022-11-24T02:09:28.643Z,4.5
2022-11-24T02:10:34.918Z,4.5
2022-11-24T02:11:41.191Z,4.5
2022-11-24T02:12:47.462Z,4.5
2022-11-24T02:13:53.739Z,4.5
2022-11-24T02:15:00.006Z,4.5
2022-11-24T02:16:06.277Z,4.5
2022-11-24T02:17:12.553Z,4.5
2022-11-24T02:18:18.817Z,4.5
2022-11-24T02:19:24.110Z,4.5
2022-11-24T02:20:30.377Z,4.5
2022-11-24T02:21:36.647Z,4.5
2022-11-24T02:22:42.925Z,4.5
2022-11-24T02:23:49.214Z,4.5
2022-11-24T02:24:55.468Z,4.6
2022-11-24T02:26:01.744Z,4.6
2022-11-24T02:27:07.040Z,4.6
2022-11-24T02:28:13.344Z,4.7
2022-11-24T02:29:18.592Z,4.7
2022-11-24T02:30:23.905Z,4.7
2022-11-24T02:31:29.192Z,4.7
2022-11-24T02:32:35.465Z,4.7
2022-11-24T02:33:41.746Z,4.8
2022-11-24T02:34:48.021Z,4.8
2022-11-24T02:35:54.279Z,4.8
2022-11-24T02:37:00.552Z,4.8
2022-11-24T02:38:06.876Z,4.8
2022-11-24T02:39:13.099Z,4.8
2022-11-24T02:40:19.384Z,4.8
2022-11-24T02:41:25.675Z,4.8
2022-11-24T02:42:31.908Z,4.8
2022-11-24T02:43:38.191Z,4.9
2022-11-24T02:44:44.459Z,4.8
2022-11-24T02:45:49.742Z,4.9
2022-11-24T02:46:56.017Z,4.9
2022-11-24T02:48:02.310Z,4.9
2022-11-24T02:49:08.558Z,4.9
2022-11-24T02:50:14.834Z,4.9
2022-11-24T02:51:21.099Z,4.9
2022-11-24T02:52:27.379Z,4.9
2022-11-24T02:53:32.674Z,4.9
2022-11-24T02:54:37.971Z,5
2022-11-24T02:55:44.240Z,5
2022-11-24T02:56:49.538Z,5
2022-11-24T02:57:54.827Z,5
2022-11-24T02:59:01.101Z,5
2022-11-24T03:00:07.369Z,5
2022-11-24T03:01:13.652Z,5
2022-11-24T03:02:19.931Z,5
2022-11-24T03:03:26.183Z,5
2022-11-24T03:04:32.459Z,5
2022-11-24T03:05:38.728Z,5
2022-11-24T03:06:44.998Z,5
2022-11-24T03:07:51.273Z,5
2022-11-24T03:08:57.541Z,5
2022-11-24T03:10:03.815Z,5
2022-11-24T03:11:10.096Z,4.9
2022-11-24T03:12:15.372Z,5
2022-11-24T03:13:21.656Z,5
2022-11-24T03:14:27.926Z,5
2022-11-24T03:15:34.213Z,5
2022-11-24T03:16:40.466Z,5
2022-11-24T03:17:46.741Z,5
2022-11-24T03:18:53.010Z,5
2022-11-24T03:19:58.307Z,5
2022-11-24T03:21:03.607Z,5
2022-11-24T03:22:08.989Z,5
2022-11-24T03:23:14.258Z,5
2022-11-24T03:24:20.451Z,5
2022-11-24T03:25:26.728Z,5
2022-11-24T03:26:33.095Z,5.1
2022-11-24T03:27:39.272Z,5.1
2022-11-24T03:28:45.541Z,5.1
2022-11-24T03:29:51.818Z,5.1
2022-11-24T03:30:58.098Z,5.1
2022-11-24T03:32:04.370Z,5.1
2022-11-24T03:33:10.672Z,5.1
2022-11-24T03:34:16.905Z,5.1
2022-11-24T03:35:23.172Z,5.1
2022-11-24T03:36:29.446Z,5.1
2022-11-24T03:37:34.734Z,5.1
2022-11-24T03:38:41.018Z,5.1
2022-11-24T03:39:47.286Z,5.2
2022-11-24T03:40:53.658Z,5.2
2022-11-24T03:41:59.827Z,5.2
2022-11-24T03:43:06.109Z,5.2
2022-11-24T03:44:12.375Z,5.2
2022-11-24T03:45:17.668Z,5.2
2022-11-24T03:46:22.957Z,5.1
2022-11-24T03:47:28.254Z,5.2
2022-11-24T03:48:33.548Z,5.2
2022-11-24T03:49:39.817Z,5.2
2022-11-24T03:50:46.083Z,5.2
2022-11-24T03:51:52.362Z,5.2
2022-11-24T03:52:58.635Z,5.3
2022-11-24T03:54:04.905Z,5.3
2022-11-24T03:55:11.214Z,5.3
2022-11-24T03:56:17.452Z,5.3
2022-11-24T03:57:23.733Z,5.3
2022-11-24T03:58:29.996Z,5.3
2022-11-24T03:59:36.266Z,5.3
2022-11-24T04:00:42.539Z,5.3
2022-11-24T04:01:48.855Z,5.3
2022-11-24T04:02:54.098Z,5.3
2022-11-24T04:04:00.372Z,5.3
2022-11-24T04:05:06.689Z,5.3
2022-11-24T04:06:12.913Z,5.3
2022-11-24T04:07:19.184Z,5.3
2022-11-24T04:08:25.450Z,5.3
2022-11-24T04:09:31.730Z,5.3
2022-11-24T04:10:37.027Z,5.3
2022-11-24T04:11:42.321Z,5.3
2022-11-24T04:12:47.625Z,5.3
2022-11-24T04:13:52.902Z,5.3
2022-11-24T04:14:59.179Z,5.3
2022-11-24T04:16:05.453Z,5.3
2022-11-24T04:17:11.734Z,5.3
2022-11-24T04:18:17.994Z,5.3
2022-11-24T04:19:24.267Z,5.4
2022-11-24T04:20:30.541Z,5.4
2022-11-24T04:21:36.810Z,5.4
2022-11-24T04:22:43.076Z,5.4
2022-11-24T04:23:49.359Z,5.4
2022-11-24T04:24:55.679Z,5.5
2022-11-24T04:26:01.917Z,5.5
2022-11-24T04:27:08.194Z,5.5
2022-11-24T04:28:13.516Z,5.5
2022-11-24T04:29:19.731Z,5.5
2022-11-24T04:30:26.098Z,5.5
2022-11-24T04:31:32.283Z,5.5
2022-11-24T04:32:38.549Z,5.5
2022-11-24T04:33:44.858Z,5.5
2022-11-24T04:34:51.092Z,5.5
2022-11-24T04:35:56.392Z,5.5
2022-11-24T04:37:01.686Z,5.4
2022-11-24T04:38:07.980Z,5.5
2022-11-24T04:39:14.216Z,5.4
2022-11-24T04:40:20.525Z,5.5
2022-11-24T04:41:25.794Z,5.4
2022-11-24T04:42:31.095Z,5.4
2022-11-24T04:43:37.361Z,5.4
2022-11-24T04:44:43.628Z,5.4
2022-11-24T04:45:49.895Z,5.4
2022-11-24T04:46:56.168Z,5.4
2022-11-24T04:48:02.524Z,5.4
2022-11-24T04:49:08.721Z,5.3
2022-11-24T04:50:14.988Z,5.3
2022-11-24T04:51:21.257Z,5.3
2022-11-24T04:52:27.530Z,5.3
2022-11-24T04:53:33.801Z,5.3
2022-11-24T04:54:40.087Z,5.3
2022-11-24T04:55:46.423Z,5.2
2022-11-24T04:56:51.643Z,5.2
2022-11-24T04:57:57.905Z,5.2
2022-11-24T04:59:04.180Z,5.2
2022-11-24T05:00:10.483Z,5.2
2022-11-24T05:01:16.782Z,5.2
2022-11-24T05:02:23.003Z,5.2
2022-11-24T05:03:29.284Z,5.2
2022-11-24T05:04:34.632Z,5.2
2022-11-24T05:05:39.860Z,5.2
2022-11-24T05:06:45.162Z,5.2
2022-11-24T05:07:50.449Z,5.1
2022-11-24T05:08:56.721Z,5.2
2022-11-24T05:10:02.994Z,5.2
2022-11-24T05:11:09.289Z,5.2
2022-11-24T05:12:15.602Z,5.2
2022-11-24T05:13:21.878Z,5.3
2022-11-24T05:14:28.074Z,5.3
2022-11-24T05:15:34.360Z,5.3
2022-11-24T05:16:40.620Z,5.3
2022-11-24T05:17:46.891Z,5.3
2022-11-24T05:18:53.164Z,5.3
2022-11-24T05:19:59.444Z,5.3
2022-11-24T05:21:05.741Z,5.3
2022-11-24T05:22:11.043Z,5.3
2022-11-24T05:23:17.275Z,5.3
2022-11-24T05:24:23.560Z,5.3
2022-11-24T05:25:29.815Z,5.4
2022-11-24T05:26:36.091Z,5.4
2022-11-24T05:27:42.396Z,5.4
2022-11-24T05:28:48.642Z,5.4
2022-11-24T05:29:53.944Z,5.4
2022-11-24T05:30:59.223Z,5.4
2022-11-24T05:32:04.528Z,5.4
2022-11-24T05:33:09.811Z,5.4
2022-11-24T05:34:16.083Z,5.4
2022-11-24T05:35:22.353Z,5.3
2022-11-24T05:36:28.629Z,5.3
2022-11-24T05:37:34.894Z,5.3
2022-11-24T05:38:41.166Z,5.3
2022-11-24T05:39:47.442Z,5.4
2022-11-24T05:40:53.711Z,5.4
2022-11-24T05:41:59.983Z,5.3
2022-11-24T05:43:06.265Z,5.3
2022-11-24T05:44:12.527Z,5.3
2022-11-24T05:45:18.799Z,5.3
2022-11-24T05:46:25.075Z,5.3
2022-11-24T05:47:30.371Z,5.3
2022-11-24T05:48:36.634Z,5.3
2022-11-24T05:49:42.901Z,5.3
2022-11-24T05:50:49.177Z,5.3
2022-11-24T05:51:55.451Z,5.3
2022-11-24T05:53:01.727Z,5.3
2022-11-24T05:54:08.014Z,5.3
2022-11-24T05:55:13.305Z,5.3
2022-11-24T05:56:18.580Z,5.3
2022-11-24T05:57:24.857Z,5.3
2022-11-24T05:58:30.148Z,5.3
2022-11-24T05:59:35.446Z,5.3
2022-11-24T06:00:41.750Z,5.3
2022-11-24T06:01:48.005Z,5.3
2022-11-24T06:02:54.300Z,5.3
2022-11-24T06:04:00.594Z,5.2
2022-11-24T06:05:06.800Z,5.2
2022-11-24T06:06:13.135Z,5.2
2022-11-24T06:07:19.343Z,5.2
2022-11-24T06:08:25.619Z,5.2
2022-11-24T06:09:31.946Z,5.2
2022-11-24T06:10:38.168Z,5.2
2022-11-24T06:11:44.433Z,5.2
2022-11-24T06:12:50.703Z,5.2
2022-11-24T06:13:56.015Z,5.2
2022-11-24T06:15:02.296Z,5.2
2022-11-24T06:16:08.540Z,5.2
2022-11-24T06:17:14.804Z,5.2
2022-11-24T06:18:21.085Z,5.2
2022-11-24T06:19:27.356Z,5.2
2022-11-24T06:20:33.652Z,5.2
2022-11-24T06:21:38.927Z,5.2
2022-11-24T06:22:44.214Z,5.2
2022-11-24T06:23:50.488Z,5.2
2022-11-24T06:24:55.790Z,5.2
2022-11-24T06:26:01.090Z,5.2
2022-11-24T06:27:07.374Z,5.2
2022-11-24T06:28:13.637Z,5.2
2022-11-24T06:29:19.903Z,5.1
2022-11-24T06:30:26.172Z,5.2
2022-11-24T06:31:32.431Z,5.2
2022-11-24T06:32:38.711Z,5.2
2022-11-24T06:33:44.977Z,5.1
2022-11-24T06:34:51.269Z,5.2
2022-11-24T06:35:57.521Z,5.1
2022-11-24T06:37:03.795Z,5.2
2022-11-24T06:38:10.097Z,5.2
2022-11-24T06:39:16.338Z,5.2
2022-11-24T06:40:21.627Z,5.2
2022-11-24T06:41:27.894Z,5.2
2022-11-24T06:42:34.169Z,5.3
2022-11-24T06:43:40.445Z,5.2
2022-11-24T06:44:46.739Z,5.3
2022-11-24T06:45:52.990Z,5.3
2022-11-24T06:46:59.253Z,5.3
2022-11-24T06:48:04.559Z,5.3
2022-11-24T06:49:09.854Z,5.3
2022-11-24T06:50:15.161Z,5.4
2022-11-24T06:51:20.439Z,5.4
2022-11-24T06:52:26.785Z,5.4
2022-11-24T06:53:32.995Z,5.4
2022-11-24T06:54:39.259Z,5.4
2022-11-24T06:55:45.531Z,5.4
2022-11-24T06:56:51.810Z,5.4
2022-11-24T06:57:58.113Z,5.4
2022-11-24T06:59:04.415Z,5.4
2022-11-24T07:00:10.736Z,5.4
2022-11-24T07:01:16.883Z,5.4
2022-11-24T07:02:23.171Z,5.4
2022-11-24T07:03:29.427Z,5.4
2022-11-24T07:04:35.721Z,5.4
2022-11-24T07:05:40.995Z,5.4
2022-11-24T07:06:47.273Z,5.4
2022-11-24T07:07:53.538Z,5.4
2022-11-24T07:08:59.807Z,5.4
2022-11-24T07:10:06.132Z,5.4
2022-11-24T07:11:12.360Z,5.4
2022-11-24T07:12:18.628Z,5.5
2022-11-24T07:13:23.914Z,5.5
2022-11-24T07:14:29.216Z,5.5
2022-11-24T07:15:34.507Z,5.5
2022-11-24T07:16:39.793Z,5.5
2022-11-24T07:17:46.066Z,5.5
2022-11-24T07:18:52.339Z,5.5
2022-11-24T07:19:58.606Z,5.5
2022-11-24T07:21:04.886Z,5.6
2022-11-24T07:22:11.155Z,5.6
2022-11-24T07:23:17.422Z,5.6
2022-11-24T07:24:23.802Z,5.6
2022-11-24T07:25:29.968Z,5.6
2022-11-24T07:26:36.244Z,5.6
2022-11-24T07:27:42.516Z,5.6
2022-11-24T07:28:48.786Z,5.7
2022-11-24T07:29:55.112Z,5.7
2022-11-24T07:31:00.346Z,5.7
2022-11-24T07:32:06.614Z,5.7
2022-11-24T07:33:12.897Z,5.8
2022-11-24T07:34:19.175Z,5.8
2022-11-24T07:35:25.457Z,5.8
2022-11-24T07:36:31.710Z,5.8
2022-11-24T07:37:37.982Z,5.9
2022-11-24T07:38:44.256Z,5.9
2022-11-24T07:39:49.565Z,5.9
2022-11-24T07:40:54.832Z,5.9
2022-11-24T07:42:00.137Z,6
2022-11-24T07:43:05.455Z,6
2022-11-24T07:44:11.696Z,6.1
2022-11-24T07:45:17.975Z,6.1
2022-11-24T07:46:24.254Z,6.1
2022-11-24T07:47:30.516Z,6.1
2022-11-24T07:48:36.789Z,6.1
2022-11-24T07:49:43.057Z,6.1
2022-11-24T07:50:49.331Z,6.1
2022-11-24T07:51:55.613Z,6.1
2022-11-24T07:53:01.892Z,6.1
2022-11-24T07:54:08.206Z,6.1
2022-11-24T07:55:14.420Z,6.1
2022-11-24T07:56:20.693Z,6.1
2022-11-24T07:57:25.981Z,6.2
2022-11-24T07:58:32.259Z,6.2
2022-11-24T07:59:38.519Z,6.2
2022-11-24T08:00:44.800Z,6.2
2022-11-24T08:01:51.107Z,6.2
2022-11-24T08:02:57.413Z,6.2
2022-11-24T08:04:03.699Z,6.2
2022-11-24T08:05:08.911Z,6.2
2022-11-24T08:06:14.201Z,6.2
2022-11-24T08:07:20.614Z,6.3
2022-11-24T08:08:26.872Z,6.2
2022-11-24T08:09:33.061Z,6.3
2022-11-24T08:10:38.323Z,6.2
2022-11-24T08:11:43.623Z,6.2
2022-11-24T08:13:56.213Z,6.2
2022-11-24T08:15:02.504Z,6.2
2022-11-24T08:16:08.690Z,6.3
2022-11-24T08:17:15.026Z,6.2
2022-11-24T08:18:21.239Z,6.2
2022-11-24T08:19:27.508Z,6.2
2022-11-24T08:20:33.779Z,6.2
2022-11-24T08:21:40.087Z,6.3
2022-11-24T08:22:46.356Z,6.3
2022-11-24T08:23:52.595Z,6.3
2022-11-24T08:24:58.866Z,6.3
2022-11-24T08:26:04.157Z,6.3
2022-11-24T08:27:10.428Z,6.3
2022-11-24T08:28:16.776Z,6.4
2022-11-24T08:29:22.978Z,6.3
2022-11-24T08:30:29.240Z,6.4
2022-11-24T08:31:35.512Z,6.4
2022-11-24T08:32:41.784Z,6.4
2022-11-24T08:33:48.093Z,6.4
2022-11-24T08:34:53.366Z,6.4
2022-11-24T08:35:58.648Z,6.4
2022-11-24T08:37:03.989Z,6.4
2022-11-24T08:38:09.245Z,6.5
2022-11-24T08:39:15.507Z,6.5
2022-11-24T08:40:21.771Z,6.5
2022-11-24T08:41:28.091Z,6.5
2022-11-24T08:42:34.350Z,6.5
2022-11-24T08:43:40.591Z,6.5
2022-11-24T08:44:46.864Z,6.5
2022-11-24T08:45:53.135Z,6.5
2022-11-24T08:46:58.595Z,6.5
2022-11-24T08:48:04.707Z,6.5
2022-11-24T08:49:11.049Z,6.5
2022-11-24T08:50:17.252Z,6.4
2022-11-24T08:51:23.543Z,6.5
2022-11-24T08:52:29.789Z,6.5
2022-11-24T08:53:36.085Z,6.5
2022-11-24T08:54:42.334Z,6.5
2022-11-24T08:55:48.609Z,6.5
2022-11-24T08:56:54.885Z,6.5
2022-11-24T08:58:01.241Z,6.5
2022-11-24T08:59:07.424Z,6.6
2022-11-24T09:00:12.723Z,6.5
2022-11-24T09:01:18.013Z,6.5
2022-11-24T09:02:24.294Z,6.6
2022-11-24T09:03:30.557Z,6.6
2022-11-24T09:04:35.863Z,6.6
2022-11-24T09:05:41.146Z,6.6
2022-11-24T09:06:47.466Z,6.6
2022-11-24T09:07:53.710Z,6.6
2022-11-24T09:08:59.966Z,6.6
2022-11-24T09:10:06.228Z,6.6
2022-11-24T09:11:12.502Z,6.6
2022-11-24T09:12:18.810Z,6.7
2022-11-24T09:13:25.096Z,6.7
2022-11-24T09:14:31.426Z,6.7
2022-11-24T09:15:37.606Z,6.6
2022-11-24T09:16:43.923Z,6.6
2022-11-24T09:17:50.166Z,6.6
2022-11-24T09:18:56.447Z,6.6
2022-11-24T09:20:01.721Z,6.6
2022-11-24T09:21:07.972Z,6.6
2022-11-24T09:22:14.250Z,6.6
2022-11-24T09:23:20.685Z,6.6
2022-11-24T09:24:26.984Z,6.7
2022-11-24T09:25:33.205Z,6.7
2022-11-24T09:26:39.343Z,6.7
2022-11-24T09:27:45.602Z,6.7
2022-11-24T09:28:51.960Z,6.8
2022-11-24T09:29:58.337Z,6.8
2022-11-24T09:31:04.419Z,6.8
2022-11-24T09:32:10.791Z,6.8
2022-11-24T09:33:16.994Z,6.8
2022-11-24T09:34:22.386Z,6.8
2022-11-24T09:35:27.638Z,6.7
2022-11-24T09:36:33.964Z,6.7
2022-11-24T09:37:40.333Z,6.8
2022-11-24T09:38:45.481Z,6.8
2022-11-24T09:39:50.829Z,6.8
2022-11-24T09:40:57.089Z,6.7
2022-11-24T09:42:03.263Z,6.7
2022-11-24T09:43:09.641Z,6.8
2022-11-24T09:44:15.861Z,6.7
2022-11-24T09:45:22.119Z,6.7
2022-11-24T09:46:28.309Z,6.7
2022-11-24T09:47:34.582Z,6.8
2022-11-24T09:48:40.974Z,6.8
2022-11-24T09:49:47.133Z,6.8
2022-11-24T09:50:53.407Z,6.8
2022-11-24T09:51:59.868Z,6.8
2022-11-24T09:53:05.949Z,6.8
2022-11-24T09:54:11.313Z,6.8
2022-11-24T09:55:17.542Z,6.8
2022-11-24T09:56:23.802Z,6.8
2022-11-24T09:57:30.054Z,6.8
2022-11-24T09:58:36.320Z,6.9
2022-11-24T09:59:42.669Z,6.9
2022-11-24T10:00:48.902Z,6.9
2022-11-24T10:01:55.290Z,6.8
2022-11-24T10:03:01.436Z,6.9
2022-11-24T10:04:07.779Z,6.9
2022-11-24T10:05:13.977Z,7
2022-11-24T10:06:20.240Z,7
2022-11-24T10:07:26.552Z,7.1
2022-11-24T10:08:31.793Z,7.1
2022-11-24T10:09:37.107Z,7.1
2022-11-24T10:10:42.504Z,7.2
2022-11-24T10:11:47.683Z,7.2
2022-11-24T10:12:53.944Z,7.2
2022-11-24T10:14:00.348Z,7.2
2022-11-24T10:15:06.511Z,7.2
2022-11-24T10:16:12.819Z,7.3
2022-11-24T10:17:19.145Z,7.3
2022-11-24T10:18:25.438Z,7.3
2022-11-24T10:19:31.658Z,7.3
2022-11-24T10:20:37.871Z,7.4
2022-11-24T10:21:44.179Z,7.4
2022-11-24T10:22:50.397Z,7.5
2022-11-24T10:23:56.661Z,7.5
2022-11-24T10:25:02.955Z,7.5
2022-11-24T10:26:08.253Z,7.5
2022-11-24T10:27:14.533Z,7.5
2022-11-24T10:28:20.893Z,7.5
2022-11-24T10:29:27.046Z,7.5
2022-11-24T10:30:33.385Z,7.5
2022-11-24T10:31:39.586Z,7.5
2022-11-24T10:32:45.859Z,7.4
2022-11-24T10:33:51.161Z,7.4
2022-11-24T10:34:56.455Z,7.4
2022-11-24T10:36:02.720Z,7.4
2022-11-24T10:37:09.055Z,7.4
2022-11-24T10:38:14.302Z,7.4
2022-11-24T10:39:19.666Z,7.4
2022-11-24T10:40:25.905Z,7.5
2022-11-24T10:41:32.213Z,7.5
2022-11-24T10:42:38.418Z,7.6
2022-11-24T10:43:44.668Z,7.6
2022-11-24T10:44:50.963Z,7.6
2022-11-24T10:45:57.215Z,7.6
2022-11-24T10:47:03.528Z,7.6
2022-11-24T10:48:09.784Z,7.6
2022-11-24T10:49:16.036Z,7.6
2022-11-24T10:50:22.299Z,7.6
2022-11-24T10:51:28.575Z,7.7
2022-11-24T10:52:34.939Z,7.7
2022-11-24T10:53:41.119Z,7.7
2022-11-24T10:54:46.409Z,7.7
2022-11-24T10:55:52.683Z,7.7
2022-11-24T10:56:58.955Z,7.7
2022-11-24T10:58:05.243Z,7.7
2022-11-24T10:59:11.502Z,7.7
2022-11-24T11:00:17.772Z,7.7
2022-11-24T11:01:24.053Z,7.7
2022-11-24T11:02:30.314Z,7.7
2022-11-24T11:03:36.670Z,7.7
2022-11-24T11:04:42.894Z,7.7
2022-11-24T11:05:49.130Z,7.7
2022-11-24T11:06:55.401Z,7.6
2022-11-24T11:08:01.689Z,7.6
2022-11-24T11:09:06.958Z,7.7
2022-11-24T11:10:13.232Z,7.7
2022-11-24T11:11:19.561Z,7.7
2022-11-24T11:12:25.775Z,7.6
2022-11-24T11:13:32.054Z,7.6
2022-11-24T11:14:38.325Z,7.7
2022-11-24T11:15:44.601Z,7.7
2022-11-24T11:16:50.904Z,7.7
2022-11-24T11:17:57.152Z,7.8
2022-11-24T11:19:03.429Z,7.8
2022-11-24T11:20:09.688Z,7.9
2022-11-24T11:21:15.951Z,7.9
2022-11-24T11:22:22.252Z,7.9
2022-11-24T11:23:27.526Z,7.9
2022-11-24T11:24:33.784Z,7.9
2022-11-24T11:25:40.164Z,7.9
2022-11-24T11:26:46.331Z,8
2022-11-24T11:27:52.661Z,7.9
2022-11-24T11:28:58.924Z,8
2022-11-24T11:30:05.144Z,8
2022-11-24T11:31:11.419Z,8
2022-11-24T11:32:17.704Z,8.1
2022-11-24T11:33:23.969Z,8.1
2022-11-24T11:34:30.237Z,8.1
2022-11-24T11:35:36.502Z,8.1
2022-11-24T11:36:42.811Z,8.2
2022-11-24T11:37:48.171Z,8.1
2022-11-24T11:38:54.342Z,8.2
2022-11-24T11:40:00.611Z,8.1
2022-11-24T11:41:06.884Z,8.1
2022-11-24T11:42:13.198Z,8.2
2022-11-24T11:43:19.424Z,8.2
2022-11-24T11:44:25.730Z,8.1
2022-11-24T11:45:31.979Z,8.2
2022-11-24T11:46:38.242Z,8.2
2022-11-24T11:47:44.524Z,8.2
2022-11-24T11:48:50.842Z,8.2
2022-11-24T11:49:57.160Z,8.3
2022-11-24T11:51:03.333Z,8.3
2022-11-24T11:52:08.700Z,8.2
2022-11-24T11:53:14.890Z,8.3
2022-11-24T11:54:21.254Z,8.2
2022-11-24T11:55:27.568Z,8.3
2022-11-24T11:56:33.925Z,8.2
2022-11-24T11:57:40.126Z,8.3
2022-11-24T11:58:46.448Z,8.4
2022-11-24T11:59:52.606Z,8.4
2022-11-24T12:00:58.960Z,8.4
2022-11-24T12:02:05.083Z,8.5
2022-11-24T12:03:11.541Z,8.5
2022-11-24T12:04:16.666Z,8.6
2022-11-24T12:05:21.934Z,8.7
2022-11-24T12:06:28.303Z,8.7
2022-11-24T12:07:33.515Z,8.8
2022-11-24T12:08:38.853Z,8.9
2022-11-24T12:09:45.145Z,8.9
2022-11-24T12:10:51.336Z,8.9
2022-11-24T12:11:57.739Z,8.9
2022-11-24T12:13:03.886Z,8.9
2022-11-24T12:14:10.148Z,8.9
2022-11-24T12:15:16.636Z,8.9
2022-11-24T12:16:22.747Z,8.8
2022-11-24T12:17:28.993Z,8.9
2022-11-24T12:18:35.239Z,8.8
2022-11-24T12:19:41.686Z,8.8
2022-11-24T12:20:47.903Z,8.8
2022-11-24T12:21:54.067Z,8.8
2022-11-24T12:22:59.484Z,8.7
2022-11-24T12:24:05.871Z,8.6
2022-11-24T12:25:11.996Z,8.6
2022-11-24T12:26:18.317Z,8.6
2022-11-24T12:27:24.595Z,8.6
2022-11-24T12:28:29.713Z,8.6
2022-11-24T12:29:36.119Z,8.6
2022-11-24T12:30:41.394Z,8.6
2022-11-24T12:31:46.576Z,8.7
2022-11-24T12:32:52.941Z,8.7
2022-11-24T12:33:58.185Z,8.7
2022-11-24T12:35:03.447Z,8.7
2022-11-24T12:36:09.729Z,8.7
2022-11-24T12:37:15.989Z,8.7
2022-11-24T12:38:22.265Z,8.7
2022-11-24T12:39:28.537Z,8.7
2022-11-24T12:40:34.834Z,8.7
2022-11-24T12:41:41.090Z,8.7
2022-11-24T12:42:47.347Z,8.8
2022-11-24T12:43:53.616Z,8.8
2022-11-24T12:44:59.895Z,8.7
2022-11-24T12:46:06.166Z,8.7
2022-11-24T12:47:12.528Z,8.7
2022-11-24T12:48:18.803Z,8.8
2022-11-24T12:49:24.002Z,8.7
2022-11-24T12:50:30.284Z,8.7
2022-11-24T12:51:36.547Z,8.8
2022-11-24T12:52:42.852Z,8.8
2022-11-24T12:53:49.114Z,8.8
2022-11-24T12:54:55.449Z,8.8
2022-11-24T12:56:01.872Z,8.8
2022-11-24T12:57:06.923Z,8.8
2022-11-24T12:58:12.478Z,8.9
2022-11-24T12:59:17.721Z,8.9
2022-11-24T13:00:22.962Z,8.9
2022-11-24T13:01:29.066Z,8.9
2022-11-24T13:02:35.509Z,8.9
2022-11-24T13:03:41.845Z,8.9
2022-11-24T13:04:47.886Z,8.9
2022-11-24T13:05:54.370Z,8.9
2022-11-24T13:07:00.605Z,8.9
2022-11-24T13:08:06.885Z,8.8
2022-11-24T13:09:13.143Z,8.8
2022-11-24T13:10:19.456Z,8.8
2022-11-24T13:11:25.524Z,8.8
2022-11-24T13:12:31.987Z,8.8
2022-11-24T13:13:38.222Z,8.7
2022-11-24T13:14:43.531Z,8.7
2022-11-24T13:15:49.728Z,8.7
2022-11-24T13:16:55.990Z,8.7
2022-11-24T13:18:02.352Z,8.7
2022-11-24T13:19:08.627Z,8.7
2022-11-24T13:20:14.899Z,8.7
2022-11-24T13:21:21.155Z,8.7
2022-11-24T13:22:26.514Z,8.8
2022-11-24T13:23:31.734Z,8.8
2022-11-24T13:24:37.034Z,8.9
2022-11-24T13:25:42.341Z,8.9
2022-11-24T13:26:48.613Z,8.9
2022-11-24T13:27:54.905Z,8.9
2022-11-24T13:29:01.113Z,8.9
2022-11-24T13:30:07.345Z,8.9
2022-11-24T13:31:13.684Z,8.9
2022-11-24T13:32:19.959Z,8.9
2022-11-24T13:33:26.143Z,8.9
2022-11-24T13:34:32.375Z,8.9
2022-11-24T13:35:38.642Z,9
2022-11-24T13:36:45.084Z,9
2022-11-24T13:37:51.394Z,9
2022-11-24T13:38:57.612Z,9
2022-11-24T13:40:02.942Z,9
2022-11-24T13:41:09.057Z,9
2022-11-24T13:42:15.441Z,8.9
2022-11-24T13:43:21.718Z,8.9
2022-11-24T13:44:27.958Z,8.9
2022-11-24T13:45:34.076Z,8.9
2022-11-24T13:46:40.466Z,9
2022-11-24T13:47:45.649Z,9
2022-11-24T13:48:51.104Z,9
2022-11-24T13:49:57.226Z,9
2022-11-24T13:51:02.522Z,9
2022-11-24T13:52:07.956Z,9.1
2022-11-24T13:53:14.245Z,9.1
2022-11-24T13:54:20.588Z,9.1
2022-11-24T13:55:26.788Z,9.1
2022-11-24T13:56:33.077Z,9.1
2022-11-24T13:57:39.345Z,9.1
2022-11-24T13:58:45.627Z,9.1
2022-11-24T13:59:51.720Z,9.1
2022-11-24T14:00:58.112Z,9.1
2022-11-24T14:02:04.399Z,9.1
2022-11-24T14:03:10.520Z,9.2
2022-11-24T14:04:16.954Z,9.2
2022-11-24T14:05:23.239Z,9.2
2022-11-24T14:06:28.384Z,9.2
2022-11-24T14:07:34.806Z,9.2
2022-11-24T14:08:41.022Z,9.2
2022-11-24T14:09:47.358Z,9.2
2022-11-24T14:10:53.585Z,9.1
2022-11-24T14:11:59.864Z,9.1
2022-11-24T14:13:06.150Z,9.1
2022-11-24T14:14:11.375Z,9.1
2022-11-24T14:15:16.798Z,9.1
2022-11-24T14:16:22.059Z,9.1
2022-11-24T14:17:28.338Z,9.1
2022-11-24T14:18:33.434Z,9.2
2022-11-24T14:19:40.009Z,9.2
2022-11-24T14:20:46.159Z,9.2
2022-11-24T14:21:52.429Z,9.2
2022-11-24T14:22:58.537Z,9.2
2022-11-24T14:24:04.860Z,9.2
2022-11-24T14:25:11.229Z,9.2
2022-11-24T14:26:17.525Z,9.3
2022-11-24T14:27:23.606Z,9.3
2022-11-24T14:28:30.109Z,9.2
2022-11-24T14:29:36.326Z,9.2
2022-11-24T14:30:42.620Z,9.1
2022-11-24T14:31:48.871Z,9.1
2022-11-24T14:34:00.254Z,9.1
2022-11-24T14:35:06.660Z,9
2022-11-24T14:36:12.918Z,9
2022-11-24T14:37:19.263Z,9
2022-11-24T14:38:25.437Z,9
2022-11-24T14:39:31.829Z,9
2022-11-24T14:40:38.059Z,9
2022-11-24T14:41:44.350Z,8.9
2022-11-24T14:42:50.618Z,8.9
2022-11-24T14:43:56.887Z,8.9
2022-11-24T14:45:03.210Z,8.9
2022-11-24T14:46:09.270Z,8.9
2022-11-24T14:47:14.703Z,8.9
2022-11-24T14:48:20.812Z,8.9
2022-11-24T14:49:27.335Z,8.9
2022-11-24T14:50:33.578Z,8.8
2022-11-24T14:51:39.790Z,8.8
2022-11-24T14:52:46.016Z,8.8
2022-11-24T14:53:52.306Z,8.9
2022-11-24T14:54:58.484Z,8.8
2022-11-24T14:56:04.715Z,8.8
2022-11-24T14:57:11.160Z,8.8
2022-11-24T14:58:17.473Z,8.8
2022-11-24T14:59:23.769Z,8.9
2022-11-24T15:00:29.803Z,8.9
2022-11-24T15:01:35.215Z,8.9
2022-11-24T15:02:41.541Z,8.9
2022-11-24T15:03:47.811Z,8.8
2022-11-24T15:04:53.944Z,8.8
2022-11-24T15:06:00.200Z,8.8
2022-11-24T15:07:06.588Z,8.9
2022-11-24T15:08:12.903Z,8.8
2022-11-24T15:09:19.112Z,8.8
2022-11-24T15:10:25.423Z,8.7
2022-11-24T15:11:31.607Z,8.7
2022-11-24T15:12:38.034Z,8.7
2022-11-24T15:13:44.270Z,8.6
2022-11-24T15:14:50.564Z,8.6
2022-11-24T15:15:55.646Z,8.6
2022-11-24T15:17:00.977Z,8.5